sensor_id;sensor_type;location;lat;lon;timestamp;temperature;humidity
13464;DHT22;6804;48.774;9.174;2024-02-21T00:00:27;9.40;99.90
13464;DHT22;6804;48.774;9.174;2024-02-21T00:02:59;9.40;99.90
13464;DHT22;6804;48.774;9.174;2024-02-21T00:05:27;9.50;99.90
13464;DHT22;6804;48.774;9.174;2024-02-21T00:07:55;9.50;99.90
13464;DHT22;6804;48.774;9.174;2024-02-21T00:10:25;9.50;99.90
13464;DHT22;6804;48.774;9.174;2024-02-21T00:12:54;9.50;99.90
13464;DHT22;6804;48.774;9.174;2024-02-21T00:15:27;9.50;99.90
13464;DHT22;6804;48.774;9.174;2024-02-21T00:17:56;9.50;99.90
13464;DHT22;6804;48.774;9.174;2024-02-21T00:20:27;9.50;99.90
13464;DHT22;6804;48.774;9.174;2024-02-21T00:22:56;9.40;99.90
13464;DHT22;6804;48.774;9.174;2024-02-21T00:25:23;9.50;99.90
13464;DHT22;6804;48.774;9.174;2024-02-21T00:27:57;9.50;99.90
13464;DHT22;6804;48.774;9.174;2024-02-21T00:30:27;9.60;99.90
13464;DHT22;6804;48.774;9.174;2024-02-21T00:32:55;9.60;99.90
13464;DHT22;6804;48.774;9.174;2024-02-21T00:35:24;9.60;99.90
13464;DHT22;6804;48.774;9.174;2024-02-21T00:37:52;9.60;99.90
13464;DHT22;6804;48.774;9.174;2024-02-21T00:40:19;9.60;99.90
13464;DHT22;6804;48.774;9.174;2024-02-21T00:42:47;9.60;99.90
13464;DHT22;6804;48.774;9.174;2024-02-21T00:45:15;9.70;99.90
13464;DHT22;6804;48.774;9.174;2024-02-21T00:47:44;9.70;99.90
13464;DHT22;6804;48.774;9.174;2024-02-21T00:50:12;9.70;99.90
13464;DHT22;6804;48.774;9.174;2024-02-21T00:52:43;9.70;99.90
13464;DHT22;6804;48.774;9.174;2024-02-21T00:55:17;9.70;99.90
13464;DHT22;6804;48.774;9.174;2024-02-21T00:57:46;9.70;99.90
13464;DHT22;6804;48.774;9.174;2024-02-21T01:00:14;9.60;99.90
13464;DHT22;6804;48.774;9.174;2024-02-21T01:02:47;9.60;99.90
13464;DHT22;6804;48.774;9.174;2024-02-21T01:05:15;9.60;99.90
13464;DHT22;6804;48.774;9.174;2024-02-21T01:07:44;9.60;99.90
13464;DHT22;6804;48.774;9.174;2024-02-21T01:10:12;9.50;99.90
13464;DHT22;6804;48.774;9.174;2024-02-21T01:12:42;9.50;99.90
13464;DHT22;6804;48.774;9.174;2024-02-21T01:15:12;9.50;99.90
13464;DHT22;6804;48.774;9.174;2024-02-21T01:17:39;9.50;99.90
13464;DHT22;6804;48.774;9.174;2024-02-21T01:20:08;9.40;99.90
13464;DHT22;6804;48.774;9.174;2024-02-21T01:22:36;9.40;99.90
13464;DHT22;6804;48.774;9.174;2024-02-21T01:25:08;9.40;99.90
13464;DHT22;6804;48.774;9.174;2024-02-21T01:27:39;9.40;99.90
13464;DHT22;6804;48.774;9.174;2024-02-21T01:30:07;9.40;99.90
13464;DHT22;6804;48.774;9.174;2024-02-21T01:32:36;9.50;99.90
13464;DHT22;6804;48.774;9.174;2024-02-21T01:35:04;9.50;99.90
13464;DHT22;6804;48.774;9.174;2024-02-21T01:37:38;9.50;99.90
13464;DHT22;6804;48.774;9.174;2024-02-21T01:40:08;9.60;99.90
13464;DHT22;6804;48.774;9.174;2024-02-21T01:42:38;9.60;99.90
13464;DHT22;6804;48.774;9.174;2024-02-21T01:45:09;9.60;99.90
13464;DHT22;6804;48.774;9.174;2024-02-21T01:47:37;9.60;99.90
13464;DHT22;6804;48.774;9.174;2024-02-21T01:50:08;9.50;99.90
13464;DHT22;6804;48.774;9.174;2024-02-21T01:52:36;9.50;99.90
13464;DHT22;6804;48.774;9.174;2024-02-21T01:55:09;9.50;99.90
13464;DHT22;6804;48.774;9.174;2024-02-21T01:57:40;9.50;99.90
13464;DHT22;6804;48.774;9.174;2024-02-21T02:00:09;9.50;99.90
13464;DHT22;6804;48.774;9.174;2024-02-21T02:02:39;9.50;99.90
13464;DHT22;6804;48.774;9.174;2024-02-21T02:05:10;9.50;99.90
13464;DHT22;6804;48.774;9.174;2024-02-21T02:07:40;9.50;99.90
13464;DHT22;6804;48.774;9.174;2024-02-21T02:10:09;9.50;99.90
13464;DHT22;6804;48.774;9.174;2024-02-21T02:12:37;9.50;99.90
13464;DHT22;6804;48.774;9.174;2024-02-21T02:15:05;9.50;99.90
13464;DHT22;6804;48.774;9.174;2024-02-21T02:17:35;9.40;99.90
13464;DHT22;6804;48.774;9.174;2024-02-21T02:20:06;9.40;99.90
13464;DHT22;6804;48.774;9.174;2024-02-21T02:22:36;9.40;99.90
13464;DHT22;6804;48.774;9.174;2024-02-21T02:25:09;9.40;99.90
13464;DHT22;6804;48.774;9.174;2024-02-21T02:27:41;9.40;99.90
13464;DHT22;6804;48.774;9.174;2024-02-21T02:30:11;9.40;99.90
13464;DHT22;6804;48.774;9.174;2024-02-21T02:32:38;9.40;99.90
13464;DHT22;6804;48.774;9.174;2024-02-21T02:35:06;9.40;99.90
13464;DHT22;6804;48.774;9.174;2024-02-21T02:37:39;9.50;99.90
13464;DHT22;6804;48.774;9.174;2024-02-21T02:40:09;9.50;99.90
13464;DHT22;6804;48.774;9.174;2024-02-21T02:42:41;9.50;99.90
13464;DHT22;6804;48.774;9.174;2024-02-21T02:45:10;9.50;99.90
13464;DHT22;6804;48.774;9.174;2024-02-21T02:47:38;9.50;99.90
13464;DHT22;6804;48.774;9.174;2024-02-21T02:50:10;9.40;99.90
13464;DHT22;6804;48.774;9.174;2024-02-21T02:52:40;9.40;99.90
13464;DHT22;6804;48.774;9.174;2024-02-21T02:55:12;9.30;99.90
13464;DHT22;6804;48.774;9.174;2024-02-21T02:57:41;9.30;99.90
13464;DHT22;6804;48.774;9.174;2024-02-21T03:00:12;9.40;99.90
13464;DHT22;6804;48.774;9.174;2024-02-21T03:02:41;9.40;99.90
13464;DHT22;6804;48.774;9.174;2024-02-21T03:05:13;9.40;99.90
13464;DHT22;6804;48.774;9.174;2024-02-21T03:07:41;9.40;99.90
13464;DHT22;6804;48.774;9.174;2024-02-21T03:10:09;9.40;99.90
13464;DHT22;6804;48.774;9.174;2024-02-21T03:12:42;9.40;99.90
13464;DHT22;6804;48.774;9.174;2024-02-21T03:15:10;9.50;99.90
13464;DHT22;6804;48.774;9.174;2024-02-21T03:17:37;9.50;99.90
13464;DHT22;6804;48.774;9.174;2024-02-21T03:20:06;9.60;99.90
13464;DHT22;6804;48.774;9.174;2024-02-21T03:22:36;9.60;99.90
13464;DHT22;6804;48.774;9.174;2024-02-21T03:25:10;9.60;99.90
13464;DHT22;6804;48.774;9.174;2024-02-21T03:27:42;9.50;99.90
13464;DHT22;6804;48.774;9.174;2024-02-21T03:30:13;9.50;99.90
13464;DHT22;6804;48.774;9.174;2024-02-21T03:32:40;9.50;99.90
13464;DHT22;6804;48.774;9.174;2024-02-21T03:35:07;9.50;99.90
13464;DHT22;6804;48.774;9.174;2024-02-21T03:37:34;9.50;99.90
13464;DHT22;6804;48.774;9.174;2024-02-21T03:40:02;9.50;99.90
13464;DHT22;6804;48.774;9.174;2024-02-21T03:42:31;9.40;99.90
13464;DHT22;6804;48.774;9.174;2024-02-21T03:45:02;9.40;99.90
13464;DHT22;6804;48.774;9.174;2024-02-21T03:47:29;9.40;99.90
13464;DHT22;6804;48.774;9.174;2024-02-21T03:49:57;9.40;99.90
13464;DHT22;6804;48.774;9.174;2024-02-21T03:52:25;9.40;99.90
13464;DHT22;6804;48.774;9.174;2024-02-21T03:54:52;9.40;99.90
13464;DHT22;6804;48.774;9.174;2024-02-21T03:57:23;9.40;99.90
13464;DHT22;6804;48.774;9.174;2024-02-21T03:59:53;9.50;99.90
13464;DHT22;6804;48.774;9.174;2024-02-21T04:02:24;9.40;99.90
13464;DHT22;6804;48.774;9.174;2024-02-21T04:04:52;9.40;99.90
13464;DHT22;6804;48.774;9.174;2024-02-21T04:07:19;9.40;99.90
13464;DHT22;6804;48.774;9.174;2024-02-21T04:09:46;9.30;99.90
13464;DHT22;6804;48.774;9.174;2024-02-21T04:12:14;9.30;99.90
13464;DHT22;6804;48.774;9.174;2024-02-21T04:14:42;9.30;99.90
13464;DHT22;6804;48.774;9.174;2024-02-21T04:17:10;9.30;99.90
13464;DHT22;6804;48.774;9.174;2024-02-21T04:19:39;9.30;99.90
13464;DHT22;6804;48.774;9.174;2024-02-21T04:22:11;9.30;99.90
13464;DHT22;6804;48.774;9.174;2024-02-21T04:24:39;9.30;99.90
13464;DHT22;6804;48.774;9.174;2024-02-21T04:27:07;9.30;99.90
13464;DHT22;6804;48.774;9.174;2024-02-21T04:29:34;9.20;99.90
13464;DHT22;6804;48.774;9.174;2024-02-21T04:32:02;9.20;99.90
13464;DHT22;6804;48.774;9.174;2024-02-21T04:34:30;9.20;99.90
13464;DHT22;6804;48.774;9.174;2024-02-21T04:37:00;9.30;99.90
13464;DHT22;6804;48.774;9.174;2024-02-21T04:39:34;9.30;99.90
13464;DHT22;6804;48.774;9.174;2024-02-21T04:42:01;9.30;99.90
13464;DHT22;6804;48.774;9.174;2024-02-21T04:44:29;9.30;99.90
13464;DHT22;6804;48.774;9.174;2024-02-21T04:46:59;9.20;99.90
13464;DHT22;6804;48.774;9.174;2024-02-21T04:49:27;9.20;99.90
13464;DHT22;6804;48.774;9.174;2024-02-21T04:51:56;9.20;99.90
13464;DHT22;6804;48.774;9.174;2024-02-21T04:54:25;9.20;99.90
13464;DHT22;6804;48.774;9.174;2024-02-21T04:56:54;9.20;99.90
13464;DHT22;6804;48.774;9.174;2024-02-21T04:59:21;9.20;99.90
13464;DHT22;6804;48.774;9.174;2024-02-21T05:01:49;9.20;99.90
13464;DHT22;6804;48.774;9.174;2024-02-21T05:04:18;9.10;99.90
13464;DHT22;6804;48.774;9.174;2024-02-21T05:06:45;9.20;99.90
13464;DHT22;6804;48.774;9.174;2024-02-21T05:09:15;9.20;99.90
13464;DHT22;6804;48.774;9.174;2024-02-21T05:11:47;9.10;99.90
13464;DHT22;6804;48.774;9.174;2024-02-21T05:14:15;9.20;99.90
13464;DHT22;6804;48.774;9.174;2024-02-21T05:16:45;9.10;99.90
13464;DHT22;6804;48.774;9.174;2024-02-21T05:19:12;9.10;99.90
13464;DHT22;6804;48.774;9.174;2024-02-21T05:21:39;9.10;99.90
13464;DHT22;6804;48.774;9.174;2024-02-21T05:24:14;9.10;99.90
13464;DHT22;6804;48.774;9.174;2024-02-21T05:26:44;9.10;99.90
13464;DHT22;6804;48.774;9.174;2024-02-21T05:29:13;9.10;99.90
13464;DHT22;6804;48.774;9.174;2024-02-21T05:31:55;9.10;99.90
13464;DHT22;6804;48.774;9.174;2024-02-21T05:34:26;9.10;99.90
13464;DHT22;6804;48.774;9.174;2024-02-21T05:36:53;9.10;99.90
13464;DHT22;6804;48.774;9.174;2024-02-21T05:39:21;9.10;99.90
13464;DHT22;6804;48.774;9.174;2024-02-21T05:41:54;9.10;99.90
13464;DHT22;6804;48.774;9.174;2024-02-21T05:44:22;9.00;99.90
13464;DHT22;6804;48.774;9.174;2024-02-21T05:46:57;9.00;99.90
13464;DHT22;6804;48.774;9.174;2024-02-21T05:49:24;9.00;99.90
13464;DHT22;6804;48.774;9.174;2024-02-21T05:51:54;9.00;99.90
13464;DHT22;6804;48.774;9.174;2024-02-21T05:54:21;8.90;99.90
13464;DHT22;6804;48.774;9.174;2024-02-21T05:56:52;9.00;99.90
13464;DHT22;6804;48.774;9.174;2024-02-21T05:59:24;8.90;99.90
13464;DHT22;6804;48.774;9.174;2024-02-21T06:01:55;9.00;99.90
13464;DHT22;6804;48.774;9.174;2024-02-21T06:04:24;9.00;99.90
13464;DHT22;6804;48.774;9.174;2024-02-21T06:06:51;9.00;99.90
13464;DHT22;6804;48.774;9.174;2024-02-21T06:09:19;9.00;99.90
13464;DHT22;6804;48.774;9.174;2024-02-21T06:11:46;9.00;99.90
13464;DHT22;6804;48.774;9.174;2024-02-21T06:14:15;9.00;99.90
13464;DHT22;6804;48.774;9.174;2024-02-21T06:16:45;8.90;99.90
13464;DHT22;6804;48.774;9.174;2024-02-21T06:19:13;8.90;99.90
13464;DHT22;6804;48.774;9.174;2024-02-21T06:21:42;8.80;99.90
13464;DHT22;6804;48.774;9.174;2024-02-21T06:24:09;8.70;99.90
13464;DHT22;6804;48.774;9.174;2024-02-21T06:26:44;8.70;99.90
13464;DHT22;6804;48.774;9.174;2024-02-21T06:29:15;8.70;99.90
13464;DHT22;6804;48.774;9.174;2024-02-21T06:31:46;8.70;99.90
13464;DHT22;6804;48.774;9.174;2024-02-21T06:34:14;8.60;99.90
13464;DHT22;6804;48.774;9.174;2024-02-21T06:36:47;8.60;99.90
13464;DHT22;6804;48.774;9.174;2024-02-21T06:39:16;8.60;99.90
13464;DHT22;6804;48.774;9.174;2024-02-21T06:41:47;8.60;99.90
13464;DHT22;6804;48.774;9.174;2024-02-21T06:44:19;8.60;99.90
13464;DHT22;6804;48.774;9.174;2024-02-21T06:46:47;8.60;99.90
13464;DHT22;6804;48.774;9.174;2024-02-21T06:49:15;8.60;99.90
13464;DHT22;6804;48.774;9.174;2024-02-21T06:51:45;8.60;99.90
13464;DHT22;6804;48.774;9.174;2024-02-21T06:54:12;8.60;99.90
13464;DHT22;6804;48.774;9.174;2024-02-21T06:56:41;8.70;99.90
13464;DHT22;6804;48.774;9.174;2024-02-21T06:59:08;8.70;99.90
13464;DHT22;6804;48.774;9.174;2024-02-21T07:01:37;8.80;99.90
13464;DHT22;6804;48.774;9.174;2024-02-21T07:04:08;8.80;99.90
13464;DHT22;6804;48.774;9.174;2024-02-21T07:06:37;8.90;99.90
13464;DHT22;6804;48.774;9.174;2024-02-21T07:09:04;9.00;99.90
13464;DHT22;6804;48.774;9.174;2024-02-21T07:11:38;9.00;99.90
13464;DHT22;6804;48.774;9.174;2024-02-21T07:14:05;9.10;99.90
13464;DHT22;6804;48.774;9.174;2024-02-21T07:16:33;9.00;99.90
13464;DHT22;6804;48.774;9.174;2024-02-21T07:19:07;8.90;99.90
13464;DHT22;6804;48.774;9.174;2024-02-21T07:21:34;8.90;99.90
13464;DHT22;6804;48.774;9.174;2024-02-21T07:24:07;8.90;99.90
13464;DHT22;6804;48.774;9.174;2024-02-21T07:26:41;9.00;99.90
13464;DHT22;6804;48.774;9.174;2024-02-21T07:29:10;9.00;99.90
13464;DHT22;6804;48.774;9.174;2024-02-21T07:31:41;9.00;99.90
13464;DHT22;6804;48.774;9.174;2024-02-21T07:34:10;9.00;99.90
13464;DHT22;6804;48.774;9.174;2024-02-21T07:36:37;9.10;99.90
13464;DHT22;6804;48.774;9.174;2024-02-21T07:39:10;9.10;99.90
13464;DHT22;6804;48.774;9.174;2024-02-21T07:41:40;9.10;99.90
13464;DHT22;6804;48.774;9.174;2024-02-21T07:44:10;9.20;99.90
13464;DHT22;6804;48.774;9.174;2024-02-21T07:46:37;9.30;99.90
13464;DHT22;6804;48.774;9.174;2024-02-21T07:49:05;9.40;99.90
13464;DHT22;6804;48.774;9.174;2024-02-21T07:51:39;9.50;99.90
13464;DHT22;6804;48.774;9.174;2024-02-21T07:54:10;9.60;99.90
13464;DHT22;6804;48.774;9.174;2024-02-21T07:56:38;9.70;99.90
13464;DHT22;6804;48.774;9.174;2024-02-21T07:59:07;9.70;99.90
13464;DHT22;6804;48.774;9.174;2024-02-21T08:01:35;9.80;99.90
13464;DHT22;6804;48.774;9.174;2024-02-21T08:04:04;9.90;99.90
13464;DHT22;6804;48.774;9.174;2024-02-21T08:06:34;9.90;99.90
13464;DHT22;6804;48.774;9.174;2024-02-21T08:09:01;9.90;99.90
13464;DHT22;6804;48.774;9.174;2024-02-21T08:11:28;10.00;99.90
13464;DHT22;6804;48.774;9.174;2024-02-21T08:13:59;10.10;99.90
13464;DHT22;6804;48.774;9.174;2024-02-21T08:16:29;10.20;99.90
13464;DHT22;6804;48.774;9.174;2024-02-21T08:18:56;10.30;99.90
13464;DHT22;6804;48.774;9.174;2024-02-21T08:21:25;10.30;99.90
13464;DHT22;6804;48.774;9.174;2024-02-21T08:23:55;10.40;99.90
13464;DHT22;6804;48.774;9.174;2024-02-21T08:26:32;10.50;99.90
13464;DHT22;6804;48.774;9.174;2024-02-21T08:29:03;10.50;99.90
13464;DHT22;6804;48.774;9.174;2024-02-21T08:31:30;10.60;99.90
13464;DHT22;6804;48.774;9.174;2024-02-21T08:33:58;10.80;99.90
13464;DHT22;6804;48.774;9.174;2024-02-21T08:36:29;10.80;99.90
13464;DHT22;6804;48.774;9.174;2024-02-21T08:39:01;10.90;99.90
13464;DHT22;6804;48.774;9.174;2024-02-21T08:41:31;10.90;99.90
13464;DHT22;6804;48.774;9.174;2024-02-21T08:43:59;10.90;99.90
13464;DHT22;6804;48.774;9.174;2024-02-21T08:46:27;10.90;99.90
13464;DHT22;6804;48.774;9.174;2024-02-21T08:48:59;10.90;99.90
13464;DHT22;6804;48.774;9.174;2024-02-21T08:51:26;10.90;99.90
13464;DHT22;6804;48.774;9.174;2024-02-21T08:54:01;11.00;99.90
13464;DHT22;6804;48.774;9.174;2024-02-21T08:56:30;11.10;99.90
13464;DHT22;6804;48.774;9.174;2024-02-21T08:58:58;11.00;99.90
13464;DHT22;6804;48.774;9.174;2024-02-21T09:01:28;11.10;99.90
13464;DHT22;6804;48.774;9.174;2024-02-21T09:03:55;11.10;99.90
13464;DHT22;6804;48.774;9.174;2024-02-21T09:06:24;11.20;99.90
13464;DHT22;6804;48.774;9.174;2024-02-21T09:08:51;11.20;99.90
13464;DHT22;6804;48.774;9.174;2024-02-21T09:11:20;11.20;99.90
13464;DHT22;6804;48.774;9.174;2024-02-21T09:13:47;11.20;99.90
13464;DHT22;6804;48.774;9.174;2024-02-21T09:16:20;11.20;99.90
13464;DHT22;6804;48.774;9.174;2024-02-21T09:18:47;11.30;99.90
13464;DHT22;6804;48.774;9.174;2024-02-21T09:21:15;11.30;99.90
13464;DHT22;6804;48.774;9.174;2024-02-21T09:23:42;11.30;99.90
13464;DHT22;6804;48.774;9.174;2024-02-21T09:26:12;11.40;99.90
13464;DHT22;6804;48.774;9.174;2024-02-21T09:28:43;11.40;99.90
13464;DHT22;6804;48.774;9.174;2024-02-21T09:31:12;11.50;99.90
13464;DHT22;6804;48.774;9.174;2024-02-21T09:33:42;11.50;99.90
13464;DHT22;6804;48.774;9.174;2024-02-21T09:36:11;11.50;99.90
13464;DHT22;6804;48.774;9.174;2024-02-21T09:38:40;11.60;99.90
13464;DHT22;6804;48.774;9.174;2024-02-21T09:41:15;11.60;99.90
13464;DHT22;6804;48.774;9.174;2024-02-21T09:43:45;11.70;99.90
13464;DHT22;6804;48.774;9.174;2024-02-21T09:46:17;11.80;99.90
13464;DHT22;6804;48.774;9.174;2024-02-21T09:48:58;11.90;99.90
13464;DHT22;6804;48.774;9.174;2024-02-21T09:51:33;12.00;99.90
13464;DHT22;6804;48.774;9.174;2024-02-21T09:54:02;12.10;99.90
13464;DHT22;6804;48.774;9.174;2024-02-21T09:56:30;12.20;99.90
13464;DHT22;6804;48.774;9.174;2024-02-21T09:59:07;12.30;99.90
13464;DHT22;6804;48.774;9.174;2024-02-21T10:01:37;12.40;99.90
13464;DHT22;6804;48.774;9.174;2024-02-21T10:04:05;12.60;99.90
13464;DHT22;6804;48.774;9.174;2024-02-21T10:06:33;12.60;99.90
13464;DHT22;6804;48.774;9.174;2024-02-21T10:09:03;12.70;99.90
13464;DHT22;6804;48.774;9.174;2024-02-21T10:11:33;12.60;99.90
13464;DHT22;6804;48.774;9.174;2024-02-21T10:14:07;12.60;99.90
13464;DHT22;6804;48.774;9.174;2024-02-21T10:16:35;12.70;99.90
13464;DHT22;6804;48.774;9.174;2024-02-21T10:19:03;12.70;99.90
13464;DHT22;6804;48.774;9.174;2024-02-21T10:21:33;12.80;99.90
13464;DHT22;6804;48.774;9.174;2024-02-21T10:24:00;12.90;99.90
13464;DHT22;6804;48.774;9.174;2024-02-21T10:26:36;13.00;99.90
13464;DHT22;6804;48.774;9.174;2024-02-21T10:29:05;12.90;99.90
13464;DHT22;6804;48.774;9.174;2024-02-21T10:31:33;13.00;99.90
13464;DHT22;6804;48.774;9.174;2024-02-21T10:34:01;13.10;99.90
13464;DHT22;6804;48.774;9.174;2024-02-21T10:36:33;13.20;99.90
13464;DHT22;6804;48.774;9.174;2024-02-21T10:39:01;13.20;99.90
13464;DHT22;6804;48.774;9.174;2024-02-21T10:41:33;13.30;99.90
13464;DHT22;6804;48.774;9.174;2024-02-21T10:44:07;13.40;99.90
13464;DHT22;6804;48.774;9.174;2024-02-21T10:46:37;13.40;99.90
13464;DHT22;6804;48.774;9.174;2024-02-21T10:49:10;13.40;99.90
13464;DHT22;6804;48.774;9.174;2024-02-21T10:51:43;13.40;99.90
13464;DHT22;6804;48.774;9.174;2024-02-21T10:54:24;13.40;99.90
13464;DHT22;6804;48.774;9.174;2024-02-21T10:56:57;13.40;99.90
13464;DHT22;6804;48.774;9.174;2024-02-21T10:59:27;13.40;99.90
13464;DHT22;6804;48.774;9.174;2024-02-21T11:01:56;13.30;99.90
13464;DHT22;6804;48.774;9.174;2024-02-21T11:04:24;13.30;99.90
13464;DHT22;6804;48.774;9.174;2024-02-21T11:06:56;13.40;99.90
13464;DHT22;6804;48.774;9.174;2024-02-21T11:09:30;13.40;99.90
13464;DHT22;6804;48.774;9.174;2024-02-21T11:11:58;13.40;99.90
13464;DHT22;6804;48.774;9.174;2024-02-21T11:14:28;13.40;99.90
13464;DHT22;6804;48.774;9.174;2024-02-21T11:16:58;13.40;99.90
13464;DHT22;6804;48.774;9.174;2024-02-21T11:19:27;13.40;99.90
13464;DHT22;6804;48.774;9.174;2024-02-21T11:21:56;13.50;99.90
13464;DHT22;6804;48.774;9.174;2024-02-21T11:24:28;13.60;99.90
13464;DHT22;6804;48.774;9.174;2024-02-21T11:26:56;13.70;99.90
13464;DHT22;6804;48.774;9.174;2024-02-21T11:29:24;13.80;99.90
13464;DHT22;6804;48.774;9.174;2024-02-21T11:31:53;13.90;99.90
13464;DHT22;6804;48.774;9.174;2024-02-21T11:34:21;13.90;99.90
13464;DHT22;6804;48.774;9.174;2024-02-21T11:36:57;13.90;99.90
13464;DHT22;6804;48.774;9.174;2024-02-21T11:39:28;14.00;99.90
13464;DHT22;6804;48.774;9.174;2024-02-21T11:42:05;14.00;99.90
13464;DHT22;6804;48.774;9.174;2024-02-21T11:44:34;14.00;99.90
13464;DHT22;6804;48.774;9.174;2024-02-21T11:47:05;14.00;99.90
13464;DHT22;6804;48.774;9.174;2024-02-21T11:49:36;14.00;99.90
13464;DHT22;6804;48.774;9.174;2024-02-21T11:52:05;14.00;99.90
13464;DHT22;6804;48.774;9.174;2024-02-21T11:54:34;14.10;99.90
13464;DHT22;6804;48.774;9.174;2024-02-21T11:57:03;14.00;99.90
13464;DHT22;6804;48.774;9.174;2024-02-21T11:59:34;14.10;99.80
13464;DHT22;6804;48.774;9.174;2024-02-21T12:02:05;14.10;98.90
13464;DHT22;6804;48.774;9.174;2024-02-21T12:04:35;14.20;99.10
13464;DHT22;6804;48.774;9.174;2024-02-21T12:07:03;14.10;99.00
13464;DHT22;6804;48.774;9.174;2024-02-21T12:09:31;14.20;99.10
13464;DHT22;6804;48.774;9.174;2024-02-21T12:11:59;14.10;98.80
13464;DHT22;6804;48.774;9.174;2024-02-21T12:14:27;14.10;98.90
13464;DHT22;6804;48.774;9.174;2024-02-21T12:16:55;14.10;98.60
13464;DHT22;6804;48.774;9.174;2024-02-21T12:19:26;14.20;98.70
13464;DHT22;6804;48.774;9.174;2024-02-21T12:21:58;14.20;98.50
13464;DHT22;6804;48.774;9.174;2024-02-21T12:24:27;14.20;98.50
13464;DHT22;6804;48.774;9.174;2024-02-21T12:26:56;14.30;98.10
13464;DHT22;6804;48.774;9.174;2024-02-21T12:29:25;14.40;97.50
13464;DHT22;6804;48.774;9.174;2024-02-21T12:31:54;14.40;97.30
13464;DHT22;6804;48.774;9.174;2024-02-21T12:34:26;14.40;96.90
13464;DHT22;6804;48.774;9.174;2024-02-21T12:36:58;14.40;96.60
13464;DHT22;6804;48.774;9.174;2024-02-21T12:39:25;14.50;95.80
13464;DHT22;6804;48.774;9.174;2024-02-21T12:41:55;14.50;95.60
13464;DHT22;6804;48.774;9.174;2024-02-21T12:44:25;14.50;95.40
13464;DHT22;6804;48.774;9.174;2024-02-21T12:46:53;14.50;95.50
13464;DHT22;6804;48.774;9.174;2024-02-21T12:49:20;14.40;94.80
13464;DHT22;6804;48.774;9.174;2024-02-21T12:51:59;14.40;95.00
13464;DHT22;6804;48.774;9.174;2024-02-21T12:54:27;14.40;94.80
13464;DHT22;6804;48.774;9.174;2024-02-21T12:56:56;14.40;94.70
13464;DHT22;6804;48.774;9.174;2024-02-21T12:59:24;14.40;94.60
13464;DHT22;6804;48.774;9.174;2024-02-21T13:01:51;14.40;94.90
13464;DHT22;6804;48.774;9.174;2024-02-21T13:04:19;14.50;94.70
13464;DHT22;6804;48.774;9.174;2024-02-21T13:06:47;14.50;94.50
13464;DHT22;6804;48.774;9.174;2024-02-21T13:09:17;14.50;94.90
13464;DHT22;6804;48.774;9.174;2024-02-21T13:11:45;14.60;94.80
13464;DHT22;6804;48.774;9.174;2024-02-21T13:14:12;14.60;94.50
13464;DHT22;6804;48.774;9.174;2024-02-21T13:16:40;14.50;94.80
13464;DHT22;6804;48.774;9.174;2024-02-21T13:19:10;14.50;95.10
13464;DHT22;6804;48.774;9.174;2024-02-21T13:21:39;14.50;95.00
13464;DHT22;6804;48.774;9.174;2024-02-21T13:24:06;14.60;95.10
13464;DHT22;6804;48.774;9.174;2024-02-21T13:26:36;14.60;94.90
13464;DHT22;6804;48.774;9.174;2024-02-21T13:29:04;14.60;94.80
13464;DHT22;6804;48.774;9.174;2024-02-21T13:31:31;14.70;93.70
13464;DHT22;6804;48.774;9.174;2024-02-21T13:33:58;14.70;93.70
13464;DHT22;6804;48.774;9.174;2024-02-21T13:36:26;14.60;93.20
13464;DHT22;6804;48.774;9.174;2024-02-21T13:38:53;14.60;93.40
13464;DHT22;6804;48.774;9.174;2024-02-21T13:41:21;14.60;93.20
13464;DHT22;6804;48.774;9.174;2024-02-21T13:43:50;14.60;93.20
13464;DHT22;6804;48.774;9.174;2024-02-21T13:46:19;14.60;92.80
13464;DHT22;6804;48.774;9.174;2024-02-21T13:48:50;14.60;92.80
13464;DHT22;6804;48.774;9.174;2024-02-21T13:51:19;14.60;92.70
13464;DHT22;6804;48.774;9.174;2024-02-21T13:53:49;14.60;93.10
13464;DHT22;6804;48.774;9.174;2024-02-21T13:56:20;14.60;93.00
13464;DHT22;6804;48.774;9.174;2024-02-21T13:58:47;14.50;93.20
13464;DHT22;6804;48.774;9.174;2024-02-21T14:01:16;14.50;93.30
13464;DHT22;6804;48.774;9.174;2024-02-21T14:03:48;14.60;93.30
13464;DHT22;6804;48.774;9.174;2024-02-21T14:06:15;14.60;93.00
13464;DHT22;6804;48.774;9.174;2024-02-21T14:08:44;14.60;92.70
13464;DHT22;6804;48.774;9.174;2024-02-21T14:11:12;14.60;93.10
13464;DHT22;6804;48.774;9.174;2024-02-21T14:13:40;14.60;93.00
13464;DHT22;6804;48.774;9.174;2024-02-21T14:16:09;14.50;93.00
13464;DHT22;6804;48.774;9.174;2024-02-21T14:18:40;14.50;93.00
13464;DHT22;6804;48.774;9.174;2024-02-21T14:21:08;14.50;92.90
13464;DHT22;6804;48.774;9.174;2024-02-21T14:23:37;14.50;92.90
13464;DHT22;6804;48.774;9.174;2024-02-21T14:26:05;14.60;93.10
13464;DHT22;6804;48.774;9.174;2024-02-21T14:28:33;14.50;93.00
13464;DHT22;6804;48.774;9.174;2024-02-21T14:31:00;14.60;93.20
13464;DHT22;6804;48.774;9.174;2024-02-21T14:33:29;14.60;93.10
13464;DHT22;6804;48.774;9.174;2024-02-21T14:35:58;14.50;92.80
13464;DHT22;6804;48.774;9.174;2024-02-21T14:38:26;14.50;92.90
13464;DHT22;6804;48.774;9.174;2024-02-21T14:41:00;14.50;92.20
13464;DHT22;6804;48.774;9.174;2024-02-21T14:43:30;14.50;91.90
13464;DHT22;6804;48.774;9.174;2024-02-21T14:46:00;14.50;91.50
13464;DHT22;6804;48.774;9.174;2024-02-21T14:48:33;14.50;91.30
13464;DHT22;6804;48.774;9.174;2024-02-21T14:51:02;14.50;90.90
13464;DHT22;6804;48.774;9.174;2024-02-21T14:53:29;14.40;90.60
13464;DHT22;6804;48.774;9.174;2024-02-21T14:55:57;14.40;91.00
13464;DHT22;6804;48.774;9.174;2024-02-21T14:58:30;14.40;91.30
13464;DHT22;6804;48.774;9.174;2024-02-21T15:00:59;14.50;91.50
13464;DHT22;6804;48.774;9.174;2024-02-21T15:03:26;14.50;91.40
13464;DHT22;6804;48.774;9.174;2024-02-21T15:05:55;14.40;91.50
13464;DHT22;6804;48.774;9.174;2024-02-21T15:08:26;14.50;91.40
13464;DHT22;6804;48.774;9.174;2024-02-21T15:10:53;14.50;91.50
13464;DHT22;6804;48.774;9.174;2024-02-21T15:13:21;14.50;91.60
13464;DHT22;6804;48.774;9.174;2024-02-21T15:15:49;14.50;91.70
13464;DHT22;6804;48.774;9.174;2024-02-21T15:18:18;14.50;91.90
13464;DHT22;6804;48.774;9.174;2024-02-21T15:20:48;14.50;91.90
13464;DHT22;6804;48.774;9.174;2024-02-21T15:23:16;14.50;92.00
13464;DHT22;6804;48.774;9.174;2024-02-21T15:25:48;14.50;91.70
13464;DHT22;6804;48.774;9.174;2024-02-21T15:28:17;14.40;92.10
13464;DHT22;6804;48.774;9.174;2024-02-21T15:30:47;14.40;92.50
13464;DHT22;6804;48.774;9.174;2024-02-21T15:33:14;14.40;92.90
13464;DHT22;6804;48.774;9.174;2024-02-21T15:35:41;14.30;92.70
13464;DHT22;6804;48.774;9.174;2024-02-21T15:38:12;14.30;92.90
13464;DHT22;6804;48.774;9.174;2024-02-21T15:40:42;14.30;93.10
13464;DHT22;6804;48.774;9.174;2024-02-21T15:43:13;14.30;93.20
13464;DHT22;6804;48.774;9.174;2024-02-21T15:45:44;14.30;93.80
13464;DHT22;6804;48.774;9.174;2024-02-21T15:48:11;14.30;94.10
13464;DHT22;6804;48.774;9.174;2024-02-21T15:50:41;14.30;94.30
13464;DHT22;6804;48.774;9.174;2024-02-21T15:53:09;14.20;94.50
13464;DHT22;6804;48.774;9.174;2024-02-21T15:55:39;14.20;94.60
13464;DHT22;6804;48.774;9.174;2024-02-21T15:58:16;14.20;94.90
13464;DHT22;6804;48.774;9.174;2024-02-21T16:00:48;14.20;95.20
13464;DHT22;6804;48.774;9.174;2024-02-21T16:03:21;14.20;95.50
13464;DHT22;6804;48.774;9.174;2024-02-21T16:05:49;14.10;95.70
13464;DHT22;6804;48.774;9.174;2024-02-21T16:08:16;14.20;95.80